Terminal Aerodrome Forecast
Issued by NWS Portland, OR

Home | Current Version | Previous Version | Text Only | Print | Product List | Glossary On
Versions: 1 2 3 4 5 6 7 8 9 10 11 12 13 14 15 16 17 18 19 20 21 22 23 24 25 26 27 28 29 30 31
000
FTUS46 KPQR 032337
TAFHIO
TAF
KHIO 032337Z 0400/0424 30007KT P6SM -SHRA BKN040
     FM040300 30005KT P6SM FEW060
     FM041000 VRB03KT P6SM FEW025
     FM041800 36005KT P6SM VCSH SCT050=

USA.gov is the U.S. government's official web portal to all federal, state and local government web resources and services.